PWSweather.com
Personal Weather Stations
Station Observations
KOHAVON11
Long Road Station, Avon, OH 44011

Long Road StationAvon, OH 44011

Lat: 41.437, Lon: -82.0477

Elevation: 686

Station Type: Davis Vantage Pro2

http://www.avon-weather.com

High Low Average
Temperature 45.7°F7.6°C 34.3°F1.3°C 39.3°F4.1°C
Dew Point 40.5°F4.7°C 31.1°F-0.5°C 35.6°F2.0°C
Winds 25.0 mph 40.2 kmh 1.0 mph 1.6 kmh 10.0 mph NE16.1 kmh NE
Wind Gusts 34.0 mph54.7 kmh 7.0 mph11.3 kmh 19.0 mph30.6 kmh
Humidity 89% 80% 87%
Pressure 30.02 in1016.6 mb 29.83 in1010.2 mb -
Precipitation 0.22 in5.6 mm - -
Hour Temp Dew Point Humidity Winds Wind Gusts Pressure Precip Precip Rate Daily Precip Total
12:00 AM 44.5°F6.9°C 38.7°F3.7°C 80% Calm Calm -- 29.84 in1010.5 mb 0.00 in0.0 mm 0.00 in0.0 mm 0.00 in0.0 mm
12:05 AM 44.4°F6.9°C 38.6°F3.7°C 80% Calm Calm -- 29.84 in1010.5 mb 0.00 in0.0 mm 0.00 in0.0 mm 0.00 in0.0 mm
12:10 AM 44.3°F6.8°C 38.5°F3.6°C 80% Calm Calm -- 29.84 in1010.5 mb 0.00 in0.0 mm 0.00 in0.0 mm 0.00 in0.0 mm
12:15 AM 44.1°F6.7°C 38.3°F3.5°C 80% Calm Calm -- 29.84 in1010.5 mb 0.00 in0.0 mm 0.00 in0.0 mm 0.00 in0.0 mm
12:20 AM 44.0°F6.7°C 38.2°F3.4°C 80% 2.0 mph N3.2 kmh N 7.0 mph11.3 kmh 29.84 in1010.5 mb 0.00 in0.0 mm 0.00 in0.0 mm 0.00 in0.0 mm
12:25 AM 43.7°F6.5°C 37.9°F3.3°C 80% 3.0 mph NNE4.8 kmh NNE 7.0 mph11.3 kmh 29.84 in1010.5 mb 0.00 in0.0 mm 0.00 in0.0 mm 0.00 in0.0 mm
12:30 AM 43.3°F6.3°C 37.5°F3.1°C 80% 4.0 mph NNE6.4 kmh NNE 7.0 mph11.3 kmh 29.84 in1010.5 mb 0.00 in0.0 mm 0.00 in0.0 mm 0.00 in0.0 mm
12:35 AM 43.0°F6.1°C 37.5°F3.1°C 81% 1.0 mph NE1.6 kmh NE 7.0 mph11.3 kmh 29.84 in1010.5 mb 0.00 in0.0 mm 0.00 in0.0 mm 0.00 in0.0 mm
12:40 AM 42.7°F5.9°C 37.2°F2.9°C 81% 2.0 mph NE3.2 kmh NE 7.0 mph11.3 kmh 29.86 in1011.2 mb 0.00 in0.0 mm 0.00 in0.0 mm 0.00 in0.0 mm
12:45 AM 42.3°F5.7°C 36.8°F2.7°C 81% 2.0 mph NNE3.2 kmh NNE 9.0 mph14.5 kmh 29.86 in1011.2 mb 0.00 in0.0 mm 0.00 in0.0 mm 0.00 in0.0 mm
12:50 AM 41.7°F5.4°C 36.3°F2.4°C 81% 6.0 mph NE9.7 kmh NE 12.0 mph19.3 kmh 29.86 in1011.2 mb 0.00 in0.0 mm 0.00 in0.0 mm 0.00 in0.0 mm
12:55 AM 41.3°F5.2°C 36.2°F2.3°C 82% 3.0 mph NNE4.8 kmh NNE 12.0 mph19.3 kmh 29.86 in1011.2 mb 0.00 in0.0 mm 0.00 in0.0 mm 0.00 in0.0 mm
01:00 AM 41.0°F5.0°C 35.9°F2.2°C 82% 7.0 mph NE11.3 kmh NE 12.0 mph19.3 kmh 29.86 in1011.2 mb 0.00 in0.0 mm 0.00 in0.0 mm 0.00 in0.0 mm
01:05 AM 40.8°F4.9°C 36.0°F2.2°C 83% 3.0 mph NE4.8 kmh NE 12.0 mph19.3 kmh 29.86 in1011.2 mb 0.00 in0.0 mm 0.00 in0.0 mm 0.00 in0.0 mm
01:10 AM 40.7°F4.8°C 35.9°F2.2°C 83% 6.0 mph NE9.7 kmh NE 15.0 mph24.1 kmh 29.86 in1011.2 mb 0.00 in0.0 mm 0.00 in0.0 mm 0.00 in0.0 mm
01:15 AM 40.4°F4.7°C 35.6°F2.0°C 83% 7.0 mph NE11.3 kmh NE 15.0 mph24.1 kmh 29.87 in1011.5 mb 0.00 in0.0 mm 0.00 in0.0 mm 0.00 in0.0 mm
01:20 AM 40.3°F4.6°C 35.8°F2.1°C 84% 13.0 mph NNE20.9 kmh NNE 15.0 mph24.1 kmh 29.87 in1011.5 mb 0.00 in0.0 mm 0.00 in0.0 mm 0.00 in0.0 mm
01:25 AM 40.1°F4.5°C 35.6°F2.0°C 84% 6.0 mph NE9.7 kmh NE 15.0 mph24.1 kmh 29.86 in1011.2 mb 0.00 in0.0 mm 0.00 in0.0 mm 0.00 in0.0 mm
01:30 AM 40.1°F4.5°C 35.6°F2.0°C 84% 6.0 mph NE9.7 kmh NE 14.0 mph22.5 kmh 29.86 in1011.2 mb 0.00 in0.0 mm 0.00 in0.0 mm 0.00 in0.0 mm
01:35 AM 40.0°F4.4°C 35.5°F1.9°C 84% 7.0 mph NE11.3 kmh NE 14.0 mph22.5 kmh 29.86 in1011.2 mb 0.00 in0.0 mm 0.00 in0.0 mm 0.00 in0.0 mm
01:40 AM 40.0°F4.4°C 35.8°F2.1°C 85% 10.0 mph NE16.1 kmh NE 15.0 mph24.1 kmh 29.86 in1011.2 mb 0.00 in0.0 mm 0.00 in0.0 mm 0.00 in0.0 mm
01:45 AM 40.0°F4.4°C 35.8°F2.1°C 85% 9.0 mph ENE14.5 kmh ENE 15.0 mph24.1 kmh 29.85 in1010.8 mb 0.00 in0.0 mm 0.00 in0.0 mm 0.00 in0.0 mm
01:50 AM 39.9°F4.4°C 35.8°F2.1°C 85% 5.0 mph ENE8.0 kmh ENE 16.0 mph25.7 kmh 29.85 in1010.8 mb 0.00 in0.0 mm 0.00 in0.0 mm 0.00 in0.0 mm
01:55 AM 39.8°F4.3°C 35.7°F2.1°C 85% 3.0 mph NE4.8 kmh NE 16.0 mph25.7 kmh 29.85 in1010.8 mb 0.00 in0.0 mm 0.00 in0.0 mm 0.00 in0.0 mm
02:00 AM 39.8°F4.3°C 35.7°F2.1°C 85% 8.0 mph NE12.9 kmh NE 16.0 mph25.7 kmh 29.86 in1011.2 mb 0.00 in0.0 mm 0.00 in0.0 mm 0.00 in0.0 mm
02:05 AM 39.8°F4.3°C 35.7°F2.1°C 85% 11.0 mph NE17.7 kmh NE 16.0 mph25.7 kmh 29.86 in1011.2 mb 0.00 in0.0 mm 0.00 in0.0 mm 0.00 in0.0 mm
02:10 AM 39.7°F4.3°C 35.6°F2.0°C 85% 14.0 mph ENE22.5 kmh ENE 16.0 mph25.7 kmh 29.86 in1011.2 mb 0.00 in0.0 mm 0.00 in0.0 mm 0.00 in0.0 mm
02:15 AM 39.7°F4.3°C 35.6°F2.0°C 85% 9.0 mph ENE14.5 kmh ENE 16.0 mph25.7 kmh 29.86 in1011.2 mb 0.00 in0.0 mm 0.00 in0.0 mm 0.00 in0.0 mm
02:20 AM 39.6°F4.2°C 35.5°F1.9°C 85% 8.0 mph ENE12.9 kmh ENE 16.0 mph25.7 kmh 29.86 in1011.2 mb 0.00 in0.0 mm 0.00 in0.0 mm 0.00 in0.0 mm
02:25 AM 39.6°F4.2°C 35.8°F2.1°C 86% 2.0 mph NNE3.2 kmh NNE 16.0 mph25.7 kmh 29.86 in1011.2 mb 0.00 in0.0 mm 0.00 in0.0 mm 0.00 in0.0 mm
02:30 AM 39.6°F4.2°C 35.8°F2.1°C 86% 8.0 mph ENE12.9 kmh ENE 16.0 mph25.7 kmh 29.86 in1011.2 mb 0.00 in0.0 mm 0.00 in0.0 mm 0.00 in0.0 mm
02:35 AM 39.6°F4.2°C 35.8°F2.1°C 86% 8.0 mph ENE12.9 kmh ENE 16.0 mph25.7 kmh 29.86 in1011.2 mb 0.00 in0.0 mm 0.00 in0.0 mm 0.00 in0.0 mm
02:40 AM 39.7°F4.3°C 35.9°F2.2°C 86% 10.0 mph NE16.1 kmh NE 14.0 mph22.5 kmh 29.86 in1011.2 mb 0.00 in0.0 mm 0.00 in0.0 mm 0.00 in0.0 mm
02:45 AM 39.8°F4.3°C 36.0°F2.2°C 86% 12.0 mph NE19.3 kmh NE 14.0 mph22.5 kmh 29.86 in1011.2 mb 0.00 in0.0 mm 0.00 in0.0 mm 0.00 in0.0 mm
02:50 AM 39.8°F4.3°C 36.0°F2.2°C 86% 6.0 mph NE9.7 kmh NE 15.0 mph24.1 kmh 29.86 in1011.2 mb 0.00 in0.0 mm 0.00 in0.0 mm 0.00 in0.0 mm
02:55 AM 39.9°F4.4°C 36.1°F2.3°C 86% 8.0 mph ENE12.9 kmh ENE 15.0 mph24.1 kmh 29.86 in1011.2 mb 0.00 in0.0 mm 0.00 in0.0 mm 0.00 in0.0 mm
03:00 AM 40.0°F4.4°C 36.2°F2.3°C 86% 3.0 mph NE4.8 kmh NE 15.0 mph24.1 kmh 29.85 in1010.8 mb 0.00 in0.0 mm 0.00 in0.0 mm 0.00 in0.0 mm
03:05 AM 40.1°F4.5°C 36.2°F2.3°C 86% 3.0 mph NE4.8 kmh NE 15.0 mph24.1 kmh 29.85 in1010.8 mb 0.00 in0.0 mm 0.00 in0.0 mm 0.00 in0.0 mm
03:10 AM 40.1°F4.5°C 36.2°F2.3°C 86% 8.0 mph NE12.9 kmh NE 14.0 mph22.5 kmh 29.85 in1010.8 mb 0.00 in0.0 mm 0.00 in0.0 mm 0.00 in0.0 mm
03:15 AM 40.1°F4.5°C 36.2°F2.3°C 86% 12.0 mph NE19.3 kmh NE 14.0 mph22.5 kmh 29.84 in1010.5 mb 0.00 in0.0 mm 0.00 in0.0 mm 0.00 in0.0 mm
03:20 AM 40.2°F4.6°C 36.3°F2.4°C 86% 10.0 mph ENE16.1 kmh ENE 16.0 mph25.7 kmh 29.84 in1010.5 mb 0.00 in0.0 mm 0.00 in0.0 mm 0.00 in0.0 mm
03:25 AM 40.2°F4.6°C 36.3°F2.4°C 86% 8.0 mph NE12.9 kmh NE 16.0 mph25.7 kmh 29.85 in1010.8 mb 0.00 in0.0 mm 0.00 in0.0 mm 0.00 in0.0 mm
03:30 AM 40.1°F4.5°C 36.2°F2.3°C 86% 9.0 mph ENE14.5 kmh ENE 16.0 mph25.7 kmh 29.84 in1010.5 mb 0.00 in0.0 mm 0.00 in0.0 mm 0.00 in0.0 mm
03:35 AM 40.1°F4.5°C 36.2°F2.3°C 86% 7.0 mph NE11.3 kmh NE 16.0 mph25.7 kmh 29.85 in1010.8 mb 0.00 in0.0 mm 0.00 in0.0 mm 0.00 in0.0 mm
03:40 AM 40.1°F4.5°C 36.2°F2.3°C 86% 10.0 mph NE16.1 kmh NE 14.0 mph22.5 kmh 29.84 in1010.5 mb 0.00 in0.0 mm 0.00 in0.0 mm 0.00 in0.0 mm
03:45 AM 40.1°F4.5°C 36.2°F2.3°C 86% 12.0 mph ENE19.3 kmh ENE 16.0 mph25.7 kmh 29.85 in1010.8 mb 0.00 in0.0 mm 0.00 in0.0 mm 0.00 in0.0 mm
03:50 AM 40.1°F4.5°C 36.2°F2.3°C 86% 7.0 mph ENE11.3 kmh ENE 16.0 mph25.7 kmh 29.85 in1010.8 mb 0.00 in0.0 mm 0.00 in0.0 mm 0.00 in0.0 mm
03:55 AM 40.2°F4.6°C 36.3°F2.4°C 86% 10.0 mph NE16.1 kmh NE 16.0 mph25.7 kmh 29.85 in1010.8 mb 0.00 in0.0 mm 0.00 in0.0 mm 0.00 in0.0 mm
04:00 AM 40.2°F4.6°C 36.3°F2.4°C 86% 4.0 mph NE6.4 kmh NE 16.0 mph25.7 kmh 29.85 in1010.8 mb 0.00 in0.0 mm 0.00 in0.0 mm 0.00 in0.0 mm
04:05 AM 40.2°F4.6°C 36.3°F2.4°C 86% 7.0 mph ENE11.3 kmh ENE 15.0 mph24.1 kmh 29.85 in1010.8 mb 0.00 in0.0 mm 0.00 in0.0 mm 0.00 in0.0 mm
04:10 AM 40.3°F4.6°C 36.4°F2.4°C 86% 5.0 mph ENE8.0 kmh ENE 15.0 mph24.1 kmh 29.85 in1010.8 mb 0.00 in0.0 mm 0.00 in0.0 mm 0.00 in0.0 mm
04:15 AM 40.3°F4.6°C 36.4°F2.4°C 86% 10.0 mph ENE16.1 kmh ENE 13.0 mph20.9 kmh 29.85 in1010.8 mb 0.00 in0.0 mm 0.00 in0.0 mm 0.00 in0.0 mm
04:20 AM 40.3°F4.6°C 36.4°F2.4°C 86% 4.0 mph ENE6.4 kmh ENE 13.0 mph20.9 kmh 29.84 in1010.5 mb 0.00 in0.0 mm 0.00 in0.0 mm 0.00 in0.0 mm
04:25 AM 40.2°F4.6°C 36.3°F2.4°C 86% 8.0 mph ENE12.9 kmh ENE 12.0 mph19.3 kmh 29.84 in1010.5 mb 0.00 in0.0 mm 0.00 in0.0 mm 0.00 in0.0 mm
04:30 AM 40.2°F4.6°C 36.3°F2.4°C 86% 4.0 mph ENE6.4 kmh ENE 12.0 mph19.3 kmh 29.84 in1010.5 mb 0.00 in0.0 mm 0.00 in0.0 mm 0.00 in0.0 mm
04:35 AM 40.2°F4.6°C 36.3°F2.4°C 86% 12.0 mph NE19.3 kmh NE 12.0 mph19.3 kmh 29.84 in1010.5 mb 0.00 in0.0 mm 0.00 in0.0 mm 0.00 in0.0 mm
04:40 AM 40.2°F4.6°C 36.3°F2.4°C 86% 6.0 mph NE9.7 kmh NE 12.0 mph19.3 kmh 29.84 in1010.5 mb 0.00 in0.0 mm 0.00 in0.0 mm 0.00 in0.0 mm
04:45 AM 40.1°F4.5°C 36.2°F2.3°C 86% 6.0 mph E9.7 kmh E 12.0 mph19.3 kmh 29.84 in1010.5 mb 0.00 in0.0 mm 0.00 in0.0 mm 0.00 in0.0 mm
04:50 AM 40.1°F4.5°C 36.2°F2.3°C 86% 8.0 mph ENE12.9 kmh ENE 12.0 mph19.3 kmh 29.84 in1010.5 mb 0.00 in0.0 mm 0.00 in0.0 mm 0.00 in0.0 mm
04:55 AM 40.1°F4.5°C 36.2°F2.3°C 86% 4.0 mph NE6.4 kmh NE 11.0 mph17.7 kmh 29.83 in1010.2 mb 0.00 in0.0 mm 0.00 in0.0 mm 0.00 in0.0 mm
05:00 AM 40.2°F4.6°C 36.3°F2.4°C 86% 2.0 mph ENE3.2 kmh ENE 11.0 mph17.7 kmh 29.83 in1010.2 mb 0.00 in0.0 mm 0.00 in0.0 mm 0.00 in0.0 mm
05:05 AM 40.2°F4.6°C 36.3°F2.4°C 86% 10.0 mph ENE16.1 kmh ENE 10.0 mph16.1 kmh 29.83 in1010.2 mb 0.00 in0.0 mm 0.00 in0.0 mm 0.00 in0.0 mm
05:10 AM 40.2°F4.6°C 36.6°F2.6°C 87% 3.0 mph NE4.8 kmh NE 10.0 mph16.1 kmh 29.83 in1010.2 mb 0.00 in0.0 mm 0.00 in0.0 mm 0.00 in0.0 mm
05:15 AM 40.2°F4.6°C 36.6°F2.6°C 87% 4.0 mph NE6.4 kmh NE 10.0 mph16.1 kmh 29.84 in1010.5 mb 0.00 in0.0 mm 0.00 in0.0 mm 0.00 in0.0 mm
05:20 AM 40.3°F4.6°C 36.7°F2.6°C 87% 5.0 mph ENE8.0 kmh ENE 10.0 mph16.1 kmh 29.84 in1010.5 mb 0.00 in0.0 mm 0.00 in0.0 mm 0.00 in0.0 mm
05:25 AM 40.3°F4.6°C 36.7°F2.6°C 87% 3.0 mph NE4.8 kmh NE 10.0 mph16.1 kmh 29.84 in1010.5 mb 0.00 in0.0 mm 0.00 in0.0 mm 0.00 in0.0 mm
05:30 AM 40.4°F4.7°C 36.8°F2.7°C 87% 4.0 mph NNE6.4 kmh NNE 7.0 mph11.3 kmh 29.85 in1010.8 mb 0.00 in0.0 mm 0.00 in0.0 mm 0.00 in0.0 mm
05:35 AM 40.5°F4.7°C 36.9°F2.7°C 87% 3.0 mph NE4.8 kmh NE 7.0 mph11.3 kmh 29.85 in1010.8 mb 0.00 in0.0 mm 0.00 in0.0 mm 0.00 in0.0 mm
05:40 AM 40.6°F4.8°C 37.0°F2.8°C 87% 4.0 mph NE6.4 kmh NE 8.0 mph12.9 kmh 29.85 in1010.8 mb 0.00 in0.0 mm 0.00 in0.0 mm 0.00 in0.0 mm
05:45 AM 40.7°F4.8°C 37.1°F2.8°C 87% 8.0 mph NE12.9 kmh NE 8.0 mph12.9 kmh 29.85 in1010.8 mb 0.00 in0.0 mm 0.00 in0.0 mm 0.00 in0.0 mm
05:50 AM 40.7°F4.8°C 37.1°F2.8°C 87% 3.0 mph NE4.8 kmh NE 8.0 mph12.9 kmh 29.85 in1010.8 mb 0.00 in0.0 mm 0.00 in0.0 mm 0.00 in0.0 mm
05:55 AM 40.8°F4.9°C 37.2°F2.9°C 87% 7.0 mph NE11.3 kmh NE 10.0 mph16.1 kmh 29.85 in1010.8 mb 0.00 in0.0 mm 0.00 in0.0 mm 0.00 in0.0 mm
06:00 AM 40.9°F4.9°C 37.3°F2.9°C 87% 6.0 mph NE9.7 kmh NE 11.0 mph17.7 kmh 29.85 in1010.8 mb 0.00 in0.0 mm 0.00 in0.0 mm 0.00 in0.0 mm
06:05 AM 40.9°F4.9°C 37.3°F2.9°C 87% 11.0 mph NE17.7 kmh NE 11.0 mph17.7 kmh 29.85 in1010.8 mb 0.00 in0.0 mm 0.00 in0.0 mm 0.00 in0.0 mm
06:10 AM 40.9°F4.9°C 37.3°F2.9°C 87% 6.0 mph NE9.7 kmh NE 15.0 mph24.1 kmh 29.85 in1010.8 mb 0.00 in0.0 mm 0.00 in0.0 mm 0.00 in0.0 mm
06:15 AM 40.9°F4.9°C 37.3°F2.9°C 87% 5.0 mph NE8.0 kmh NE 15.0 mph24.1 kmh 29.85 in1010.8 mb 0.00 in0.0 mm 0.00 in0.0 mm 0.00 in0.0 mm
06:20 AM 40.9°F4.9°C 37.3°F2.9°C 87% 15.0 mph NE24.1 kmh NE 15.0 mph24.1 kmh 29.85 in1010.8 mb 0.00 in0.0 mm 0.00 in0.0 mm 0.00 in0.0 mm
06:25 AM 40.9°F4.9°C 37.3°F2.9°C 87% 5.0 mph NE8.0 kmh NE 17.0 mph27.4 kmh 29.86 in1011.2 mb 0.00 in0.0 mm 0.00 in0.0 mm 0.00 in0.0 mm
06:30 AM 40.8°F4.9°C 36.9°F2.7°C 86% 15.0 mph ENE24.1 kmh ENE 17.0 mph27.4 kmh 29.84 in1010.5 mb 0.00 in0.0 mm 0.00 in0.0 mm 0.00 in0.0 mm
06:35 AM 40.7°F4.8°C 37.1°F2.8°C 87% 3.0 mph NE4.8 kmh NE 17.0 mph27.4 kmh 29.86 in1011.2 mb 0.00 in0.0 mm 0.00 in0.0 mm 0.00 in0.0 mm
06:40 AM 40.7°F4.8°C 37.1°F2.8°C 87% 12.0 mph ENE19.3 kmh ENE 17.0 mph27.4 kmh 29.84 in1010.5 mb 0.00 in0.0 mm 0.00 in0.0 mm 0.00 in0.0 mm
06:45 AM 40.7°F4.8°C 37.1°F2.8°C 87% 3.0 mph E4.8 kmh E 15.0 mph24.1 kmh 29.84 in1010.5 mb 0.00 in0.0 mm 0.00 in0.0 mm 0.00 in0.0 mm
06:50 AM 40.6°F4.8°C 37.0°F2.8°C 87% 12.0 mph NE19.3 kmh NE 15.0 mph24.1 kmh 29.84 in1010.5 mb 0.00 in0.0 mm 0.00 in0.0 mm 0.00 in0.0 mm
06:55 AM 40.7°F4.8°C 37.1°F2.8°C 87% 9.0 mph ENE14.5 kmh ENE 17.0 mph27.4 kmh 29.84 in1010.5 mb 0.00 in0.0 mm 0.00 in0.0 mm 0.00 in0.0 mm
07:00 AM 40.7°F4.8°C 37.1°F2.8°C 87% 9.0 mph ENE14.5 kmh ENE 17.0 mph27.4 kmh 29.83 in1010.2 mb 0.00 in0.0 mm 0.00 in0.0 mm 0.00 in0.0 mm
07:05 AM 40.7°F4.8°C 37.1°F2.8°C 87% 10.0 mph NE16.1 kmh NE 17.0 mph27.4 kmh 29.84 in1010.5 mb 0.00 in0.0 mm 0.00 in0.0 mm 0.00 in0.0 mm
07:10 AM 40.8°F4.9°C 37.2°F2.9°C 87% 8.0 mph ENE12.9 kmh ENE 17.0 mph27.4 kmh 29.84 in1010.5 mb 0.00 in0.0 mm 0.00 in0.0 mm 0.00 in0.0 mm
07:15 AM 40.9°F4.9°C 37.3°F2.9°C 87% 9.0 mph E14.5 kmh E 12.0 mph19.3 kmh 29.84 in1010.5 mb 0.00 in0.0 mm 0.00 in0.0 mm 0.00 in0.0 mm
07:20 AM 41.0°F5.0°C 37.4°F3.0°C 87% 8.0 mph E12.9 kmh E 12.0 mph19.3 kmh 29.84 in1010.5 mb 0.00 in0.0 mm 0.00 in0.0 mm 0.00 in0.0 mm
07:25 AM 41.1°F5.1°C 37.5°F3.1°C 87% 7.0 mph NE11.3 kmh NE 12.0 mph19.3 kmh 29.84 in1010.5 mb 0.00 in0.0 mm 0.00 in0.0 mm 0.00 in0.0 mm
07:30 AM 41.2°F5.1°C 37.6°F3.1°C 87% 7.0 mph ENE11.3 kmh ENE 12.0 mph19.3 kmh 29.84 in1010.5 mb 0.00 in0.0 mm 0.00 in0.0 mm 0.00 in0.0 mm
07:35 AM 41.2°F5.1°C 37.6°F3.1°C 87% 9.0 mph ENE14.5 kmh ENE 12.0 mph19.3 kmh 29.83 in1010.2 mb 0.00 in0.0 mm 0.00 in0.0 mm 0.00 in0.0 mm
07:40 AM 41.3°F5.2°C 37.7°F3.2°C 87% 9.0 mph NE14.5 kmh NE 12.0 mph19.3 kmh 29.84 in1010.5 mb 0.00 in0.0 mm 0.00 in0.0 mm 0.00 in0.0 mm
07:45 AM 41.3°F5.2°C 37.7°F3.2°C 87% 8.0 mph NE12.9 kmh NE 10.0 mph16.1 kmh 29.84 in1010.5 mb 0.00 in0.0 mm 0.00 in0.0 mm 0.00 in0.0 mm
07:50 AM 41.3°F5.2°C 37.7°F3.2°C 87% 3.0 mph ENE4.8 kmh ENE 10.0 mph16.1 kmh 29.84 in1010.5 mb 0.00 in0.0 mm 0.00 in0.0 mm 0.00 in0.0 mm
07:55 AM 41.4°F5.2°C 37.8°F3.2°C 87% 5.0 mph ENE8.0 kmh ENE 9.0 mph14.5 kmh 29.85 in1010.8 mb 0.00 in0.0 mm 0.00 in0.0 mm 0.00 in0.0 mm
08:00 AM 41.5°F5.3°C 37.9°F3.3°C 87% 2.0 mph ENE3.2 kmh ENE 10.0 mph16.1 kmh 29.85 in1010.8 mb 0.00 in0.0 mm 0.00 in0.0 mm 0.00 in0.0 mm
08:05 AM 41.7°F5.4°C 38.1°F3.4°C 87% 1.0 mph ENE1.6 kmh ENE 10.0 mph16.1 kmh 29.85 in1010.8 mb 0.00 in0.0 mm 0.00 in0.0 mm 0.00 in0.0 mm
08:10 AM 41.8°F5.4°C 38.2°F3.4°C 87% 7.0 mph ENE11.3 kmh ENE 10.0 mph16.1 kmh 29.85 in1010.8 mb 0.00 in0.0 mm 0.00 in0.0 mm 0.00 in0.0 mm
08:15 AM 41.9°F5.5°C 38.3°F3.5°C 87% 3.0 mph ENE4.8 kmh ENE 10.0 mph16.1 kmh 29.85 in1010.8 mb 0.00 in0.0 mm 0.00 in0.0 mm 0.00 in0.0 mm
08:20 AM 42.0°F5.6°C 38.4°F3.6°C 87% 2.0 mph NNE3.2 kmh NNE 9.0 mph14.5 kmh 29.86 in1011.2 mb 0.00 in0.0 mm 0.00 in0.0 mm 0.00 in0.0 mm
08:25 AM 42.1°F5.6°C 38.5°F3.6°C 87% 7.0 mph NNE11.3 kmh NNE 9.0 mph14.5 kmh 29.86 in1011.2 mb 0.00 in0.0 mm 0.00 in0.0 mm 0.00 in0.0 mm
08:30 AM 42.2°F5.7°C 38.3°F3.5°C 86% 5.0 mph NE8.0 kmh NE 8.0 mph12.9 kmh 29.87 in1011.5 mb 0.00 in0.0 mm 0.00 in0.0 mm 0.00 in0.0 mm
08:35 AM 42.3°F5.7°C 38.4°F3.6°C 86% 4.0 mph NNE6.4 kmh NNE 10.0 mph16.1 kmh 29.86 in1011.2 mb 0.00 in0.0 mm 0.00 in0.0 mm 0.00 in0.0 mm
08:40 AM 42.3°F5.7°C 38.4°F3.6°C 86% 9.0 mph ENE14.5 kmh ENE 11.0 mph17.7 kmh 29.86 in1011.2 mb 0.00 in0.0 mm 0.00 in0.0 mm 0.00 in0.0 mm
08:45 AM 42.4°F5.8°C 38.5°F3.6°C 86% 9.0 mph ENE14.5 kmh ENE 13.0 mph20.9 kmh 29.86 in1011.2 mb 0.00 in0.0 mm 0.00 in0.0 mm 0.00 in0.0 mm
08:50 AM 42.5°F5.8°C 38.6°F3.7°C 86% 5.0 mph NE8.0 kmh NE 13.0 mph20.9 kmh 29.87 in1011.5 mb 0.00 in0.0 mm 0.00 in0.0 mm 0.00 in0.0 mm
08:55 AM 42.5°F5.8°C 38.6°F3.7°C 86% 7.0 mph ENE11.3 kmh ENE 13.0 mph20.9 kmh 29.87 in1011.5 mb 0.00 in0.0 mm 0.00 in0.0 mm 0.00 in0.0 mm
09:00 AM 42.5°F5.8°C 38.6°F3.7°C 86% 4.0 mph NE6.4 kmh NE 13.0 mph20.9 kmh 29.87 in1011.5 mb 0.00 in0.0 mm 0.00 in0.0 mm 0.00 in0.0 mm
09:05 AM 42.6°F5.9°C 38.7°F3.7°C 86% 8.0 mph NE12.9 kmh NE 13.0 mph20.9 kmh 29.87 in1011.5 mb 0.00 in0.0 mm 0.00 in0.0 mm 0.00 in0.0 mm
09:10 AM 42.6°F5.9°C 38.7°F3.7°C 86% 4.0 mph ENE6.4 kmh ENE 13.0 mph20.9 kmh 29.87 in1011.5 mb 0.00 in0.0 mm 0.00 in0.0 mm 0.00 in0.0 mm
09:15 AM 42.7°F5.9°C 38.8°F3.8°C 86% 13.0 mph NE20.9 kmh NE 15.0 mph24.1 kmh 29.87 in1011.5 mb 0.00 in0.0 mm 0.00 in0.0 mm 0.00 in0.0 mm
09:20 AM 42.6°F5.9°C 38.7°F3.7°C 86% 10.0 mph NE16.1 kmh NE 15.0 mph24.1 kmh 29.88 in1011.9 mb 0.00 in0.0 mm 0.00 in0.0 mm 0.00 in0.0 mm
09:25 AM 42.7°F5.9°C 38.8°F3.8°C 86% 9.0 mph ENE14.5 kmh ENE 15.0 mph24.1 kmh 29.88 in1011.9 mb 0.00 in0.0 mm 0.00 in0.0 mm 0.00 in0.0 mm
09:30 AM 42.6°F5.9°C 38.7°F3.7°C 86% 8.0 mph ENE12.9 kmh ENE 15.0 mph24.1 kmh 29.88 in1011.9 mb 0.00 in0.0 mm 0.00 in0.0 mm 0.00 in0.0 mm
09:35 AM 42.5°F5.8°C 38.6°F3.7°C 86% 9.0 mph 14.5 kmh 15.0 mph24.1 kmh 29.88 in1011.9 mb 0.00 in0.0 mm 0.00 in0.0 mm 0.00 in0.0 mm
09:40 AM 42.5°F5.8°C 38.6°F3.7°C 86% 9.0 mph ENE14.5 kmh ENE 15.0 mph24.1 kmh 29.88 in1011.9 mb 0.00 in0.0 mm 0.00 in0.0 mm 0.00 in0.0 mm
09:45 AM 42.4°F5.8°C 38.5°F3.6°C 86% 12.0 mph ENE19.3 kmh ENE 17.0 mph27.4 kmh 29.87 in1011.5 mb 0.00 in0.0 mm 0.00 in0.0 mm 0.00 in0.0 mm
09:50 AM 42.2°F5.7°C 38.3°F3.5°C 86% 16.0 mph NE25.7 kmh NE 17.0 mph27.4 kmh 29.87 in1011.5 mb 0.00 in0.0 mm 0.00 in0.0 mm 0.00 in0.0 mm
09:55 AM 42.1°F5.6°C 38.2°F3.4°C 86% 9.0 mph ENE14.5 kmh ENE 18.0 mph29.0 kmh 29.86 in1011.2 mb 0.00 in0.0 mm 0.00 in0.0 mm 0.00 in0.0 mm
10:00 AM 41.9°F5.5°C 38.0°F3.3°C 86% 4.0 mph NE6.4 kmh NE 18.0 mph29.0 kmh 29.86 in1011.2 mb 0.00 in0.0 mm 0.00 in0.0 mm 0.00 in0.0 mm
10:05 AM 41.6°F5.3°C 37.7°F3.2°C 86% 11.0 mph ENE17.7 kmh ENE 18.0 mph29.0 kmh 29.87 in1011.5 mb 0.00 in0.0 mm 0.00 in0.0 mm 0.00 in0.0 mm
10:10 AM 41.5°F5.3°C 37.6°F3.1°C 86% 13.0 mph ENE20.9 kmh ENE 18.0 mph29.0 kmh 29.87 in1011.5 mb 0.00 in0.0 mm 0.00 in0.0 mm 0.00 in0.0 mm
10:15 AM 41.3°F5.2°C 37.4°F3.0°C 86% 13.0 mph ENE20.9 kmh ENE 22.0 mph35.4 kmh 29.87 in1011.5 mb 0.00 in0.0 mm 0.00 in0.0 mm 0.00 in0.0 mm
10:20 AM 41.2°F5.1°C 37.3°F2.9°C 86% 8.0 mph ENE12.9 kmh ENE 22.0 mph35.4 kmh 29.87 in1011.5 mb 0.00 in0.0 mm 0.00 in0.0 mm 0.00 in0.0 mm
10:25 AM 41.3°F5.2°C 37.4°F3.0°C 86% 2.0 mph NE3.2 kmh NE 22.0 mph35.4 kmh 29.87 in1011.5 mb 0.00 in0.0 mm 0.00 in0.0 mm 0.00 in0.0 mm
10:30 AM 41.3°F5.2°C 37.4°F3.0°C 86% 8.0 mph ENE12.9 kmh ENE 22.0 mph35.4 kmh 29.86 in1011.2 mb 0.00 in0.0 mm 0.00 in0.0 mm 0.00 in0.0 mm
10:35 AM 41.3°F5.2°C 37.4°F3.0°C 86% 11.0 mph ENE17.7 kmh ENE 18.0 mph29.0 kmh 29.86 in1011.2 mb 0.00 in0.0 mm 0.00 in0.0 mm 0.00 in0.0 mm
10:40 AM 41.2°F5.1°C 37.3°F2.9°C 86% 10.0 mph ENE16.1 kmh ENE 18.0 mph29.0 kmh 29.86 in1011.2 mb 0.00 in0.0 mm 0.00 in0.0 mm 0.00 in0.0 mm
10:45 AM 41.2°F5.1°C 37.3°F2.9°C 86% 8.0 mph E12.9 kmh E 19.0 mph30.6 kmh 29.87 in1011.5 mb 0.00 in0.0 mm 0.00 in0.0 mm 0.00 in0.0 mm
10:50 AM 41.1°F5.1°C 37.2°F2.9°C 86% 6.0 mph E9.7 kmh E 19.0 mph30.6 kmh 29.87 in1011.5 mb 0.00 in0.0 mm 0.00 in0.0 mm 0.00 in0.0 mm
10:55 AM 41.2°F5.1°C 37.3°F2.9°C 86% 8.0 mph NE12.9 kmh NE 19.0 mph30.6 kmh 29.87 in1011.5 mb 0.00 in0.0 mm 0.00 in0.0 mm 0.00 in0.0 mm
11:00 AM 41.4°F5.2°C 37.5°F3.1°C 86% 8.0 mph E12.9 kmh E 22.0 mph35.4 kmh 29.87 in1011.5 mb 0.00 in0.0 mm 0.00 in0.0 mm 0.00 in0.0 mm
11:05 AM 41.7°F5.4°C 37.8°F3.2°C 86% 10.0 mph ENE16.1 kmh ENE 22.0 mph35.4 kmh 29.87 in1011.5 mb 0.00 in0.0 mm 0.00 in0.0 mm 0.00 in0.0 mm
11:10 AM 42.2°F5.7°C 38.3°F3.5°C 86% 5.0 mph ENE8.0 kmh ENE 22.0 mph35.4 kmh 29.87 in1011.5 mb 0.00 in0.0 mm 0.00 in0.0 mm 0.00 in0.0 mm
11:15 AM 42.4°F5.8°C 38.2°F3.4°C 85% 5.0 mph NE8.0 kmh NE 22.0 mph35.4 kmh 29.87 in1011.5 mb 0.00 in0.0 mm 0.00 in0.0 mm 0.00 in0.0 mm
11:20 AM 42.7°F5.9°C 38.5°F3.6°C 85% 9.0 mph E14.5 kmh E 18.0 mph29.0 kmh 29.87 in1011.5 mb 0.00 in0.0 mm 0.00 in0.0 mm 0.00 in0.0 mm
11:25 AM 42.7°F5.9°C 38.5°F3.6°C 85% 7.0 mph NE11.3 kmh NE 18.0 mph29.0 kmh 29.87 in1011.5 mb 0.00 in0.0 mm 0.00 in0.0 mm 0.00 in0.0 mm
11:30 AM 42.6°F5.9°C 38.4°F3.6°C 85% 17.0 mph ENE27.4 kmh ENE 18.0 mph29.0 kmh 29.86 in1011.2 mb 0.00 in0.0 mm 0.00 in0.0 mm 0.00 in0.0 mm
11:35 AM 43.0°F6.1°C 38.8°F3.8°C 85% 7.0 mph NE11.3 kmh NE 18.0 mph29.0 kmh 29.86 in1011.2 mb 0.00 in0.0 mm 0.00 in0.0 mm 0.00 in0.0 mm
11:40 AM 43.1°F6.2°C 38.6°F3.7°C 84% 13.0 mph NE20.9 kmh NE 18.0 mph29.0 kmh 29.86 in1011.2 mb 0.00 in0.0 mm 0.00 in0.0 mm 0.00 in0.0 mm
11:45 AM 43.1°F6.2°C 38.6°F3.7°C 84% 11.0 mph NE17.7 kmh NE 18.0 mph29.0 kmh 29.87 in1011.5 mb 0.00 in0.0 mm 0.00 in0.0 mm 0.00 in0.0 mm
11:50 AM 42.8°F6.0°C 38.3°F3.5°C 84% 12.0 mph NE19.3 kmh NE 15.0 mph24.1 kmh 29.87 in1011.5 mb 0.00 in0.0 mm 0.00 in0.0 mm 0.00 in0.0 mm
11:55 AM 42.9°F6.1°C 38.4°F3.6°C 84% 6.0 mph NE9.7 kmh NE 15.0 mph24.1 kmh 29.87 in1011.5 mb 0.00 in0.0 mm 0.00 in0.0 mm 0.00 in0.0 mm
12:00 PM 43.0°F6.1°C 38.5°F3.6°C 84% 9.0 mph ENE14.5 kmh ENE 15.0 mph24.1 kmh 29.87 in1011.5 mb 0.00 in0.0 mm 0.00 in0.0 mm 0.00 in0.0 mm
12:05 PM 43.0°F6.1°C 38.5°F3.6°C 84% 7.0 mph NNE11.3 kmh NNE 15.0 mph24.1 kmh 29.87 in1011.5 mb 0.00 in0.0 mm 0.00 in0.0 mm 0.00 in0.0 mm
12:10 PM 43.2°F6.2°C 38.7°F3.7°C 84% 5.0 mph NE8.0 kmh NE 15.0 mph24.1 kmh 29.87 in1011.5 mb 0.00 in0.0 mm 0.00 in0.0 mm 0.00 in0.0 mm
12:15 PM 43.2°F6.2°C 38.7°F3.7°C 84% 11.0 mph NE17.7 kmh NE 15.0 mph24.1 kmh 29.87 in1011.5 mb 0.00 in0.0 mm 0.00 in0.0 mm 0.00 in0.0 mm
12:20 PM 43.2°F6.2°C 38.7°F3.7°C 84% 13.0 mph NNE20.9 kmh NNE 15.0 mph24.1 kmh 29.87 in1011.5 mb 0.00 in0.0 mm 0.00 in0.0 mm 0.00 in0.0 mm
12:25 PM 43.2°F6.2°C 38.7°F3.7°C 84% 8.0 mph NE12.9 kmh NE 16.0 mph25.7 kmh 29.86 in1011.2 mb 0.00 in0.0 mm 0.00 in0.0 mm 0.00 in0.0 mm
12:30 PM 43.5°F6.4°C 39.0°F3.9°C 84% 7.0 mph NE11.3 kmh NE 16.0 mph25.7 kmh 29.86 in1011.2 mb 0.00 in0.0 mm 0.00 in0.0 mm 0.00 in0.0 mm
12:35 PM 43.6°F6.4°C 38.7°F3.7°C 83% 8.0 mph NE12.9 kmh NE 16.0 mph25.7 kmh 29.86 in1011.2 mb 0.00 in0.0 mm 0.00 in0.0 mm 0.00 in0.0 mm
12:40 PM 43.6°F6.4°C 38.7°F3.7°C 83% 10.0 mph NE16.1 kmh NE 16.0 mph25.7 kmh 29.86 in1011.2 mb 0.00 in0.0 mm 0.00 in0.0 mm 0.00 in0.0 mm
12:45 PM 44.1°F6.7°C 39.2°F4.0°C 83% 13.0 mph ENE20.9 kmh ENE 16.0 mph25.7 kmh 29.86 in1011.2 mb 0.00 in0.0 mm 0.00 in0.0 mm 0.00 in0.0 mm
12:50 PM 44.1°F6.7°C 39.2°F4.0°C 83% 10.0 mph ENE16.1 kmh ENE 16.0 mph25.7 kmh 29.86 in1011.2 mb 0.00 in0.0 mm 0.00 in0.0 mm 0.00 in0.0 mm
12:55 PM 45.1°F7.3°C 40.5°F4.7°C 84% 4.0 mph ENE6.4 kmh ENE 15.0 mph24.1 kmh 29.86 in1011.2 mb 0.00 in0.0 mm 0.00 in0.0 mm 0.00 in0.0 mm
01:00 PM 45.5°F7.5°C 40.3°F4.6°C 82% 8.0 mph NE12.9 kmh NE 15.0 mph24.1 kmh 29.86 in1011.2 mb 0.00 in0.0 mm 0.00 in0.0 mm 0.00 in0.0 mm
01:05 PM 45.7°F7.6°C 39.8°F4.3°C 80% 10.0 mph NNE16.1 kmh NNE 12.0 mph19.3 kmh 29.86 in1011.2 mb 0.00 in0.0 mm 0.00 in0.0 mm 0.00 in0.0 mm
01:10 PM 45.2°F7.3°C 39.3°F4.1°C 80% 7.0 mph NE11.3 kmh NE 13.0 mph20.9 kmh 29.85 in1010.8 mb 0.00 in0.0 mm 0.00 in0.0 mm 0.00 in0.0 mm
01:15 PM 45.2°F7.3°C 39.7°F4.3°C 81% 13.0 mph E20.9 kmh E 14.0 mph22.5 kmh 29.85 in1010.8 mb 0.00 in0.0 mm 0.00 in0.0 mm 0.00 in0.0 mm
01:20 PM 45.1°F7.3°C 39.2°F4.0°C 80% 10.0 mph NE16.1 kmh NE 15.0 mph24.1 kmh 29.85 in1010.8 mb 0.00 in0.0 mm 0.00 in0.0 mm 0.00 in0.0 mm
01:25 PM 44.7°F7.1°C 38.9°F3.8°C 80% 7.0 mph ENE11.3 kmh ENE 15.0 mph24.1 kmh 29.85 in1010.8 mb 0.00 in0.0 mm 0.00 in0.0 mm 0.00 in0.0 mm
01:30 PM 44.4°F6.9°C 38.6°F3.7°C 80% 9.0 mph ENE14.5 kmh ENE 15.0 mph24.1 kmh 29.86 in1011.2 mb 0.00 in0.0 mm 0.00 in0.0 mm 0.00 in0.0 mm
01:35 PM 44.3°F6.8°C 38.5°F3.6°C 80% 9.0 mph NE14.5 kmh NE 15.0 mph24.1 kmh 29.86 in1011.2 mb 0.00 in0.0 mm 0.00 in0.0 mm 0.00 in0.0 mm
01:40 PM 44.1°F6.7°C 38.9°F3.8°C 82% 4.0 mph ENE6.4 kmh ENE 13.0 mph20.9 kmh 29.87 in1011.5 mb 0.00 in0.0 mm 0.00 in0.0 mm 0.00 in0.0 mm
01:45 PM 43.5°F6.4°C 38.6°F3.7°C 83% 6.0 mph NE9.7 kmh NE 13.0 mph20.9 kmh 29.87 in1011.5 mb 0.00 in0.0 mm 0.00 in0.0 mm 0.01 in0.3 mm
01:50 PM 43.1°F6.2°C 38.6°F3.7°C 84% 6.0 mph NE9.7 kmh NE 13.0 mph20.9 kmh 29.87 in1011.5 mb 0.00 in0.0 mm 0.00 in0.0 mm 0.01 in0.3 mm
01:55 PM 43.0°F6.1°C 38.8°F3.8°C 85% 4.0 mph NE6.4 kmh NE 13.0 mph20.9 kmh 29.87 in1011.5 mb 0.00 in0.0 mm 0.00 in0.0 mm 0.01 in0.3 mm
02:00 PM 42.9°F6.1°C 38.7°F3.7°C 85% 5.0 mph NE8.0 kmh NE 11.0 mph17.7 kmh 29.86 in1011.2 mb 0.00 in0.0 mm 0.00 in0.0 mm 0.01 in0.3 mm
02:05 PM 42.9°F6.1°C 39.0°F3.9°C 86% 8.0 mph ENE12.9 kmh ENE 11.0 mph17.7 kmh 29.86 in1011.2 mb 0.00 in0.0 mm 0.00 in0.0 mm 0.02 in0.5 mm
02:10 PM 42.8°F6.0°C 38.9°F3.8°C 86% 6.0 mph NE9.7 kmh NE 12.0 mph19.3 kmh 29.86 in1011.2 mb 0.00 in0.0 mm 0.00 in0.0 mm 0.02 in0.5 mm
02:15 PM 42.5°F5.8°C 38.6°F3.7°C 86% 7.0 mph ENE11.3 kmh ENE 12.0 mph19.3 kmh 29.85 in1010.8 mb 0.00 in0.0 mm 0.00 in0.0 mm 0.02 in0.5 mm
02:20 PM 42.7°F5.9°C 39.1°F3.9°C 87% 7.0 mph ENE11.3 kmh ENE 12.0 mph19.3 kmh 29.85 in1010.8 mb 0.00 in0.0 mm 0.00 in0.0 mm 0.02 in0.5 mm
02:25 PM 42.5°F5.8°C 38.9°F3.8°C 87% 9.0 mph ENE14.5 kmh ENE 12.0 mph19.3 kmh 29.85 in1010.8 mb 0.00 in0.0 mm 0.00 in0.0 mm 0.02 in0.5 mm
02:30 PM 42.3°F5.7°C 39.0°F3.9°C 88% 8.0 mph ENE12.9 kmh ENE 13.0 mph20.9 kmh 29.84 in1010.5 mb 0.00 in0.0 mm 0.00 in0.0 mm 0.02 in0.5 mm
02:35 PM 42.5°F5.8°C 39.2°F4.0°C 88% 8.0 mph NE12.9 kmh NE 13.0 mph20.9 kmh 29.84 in1010.5 mb 0.00 in0.0 mm 0.00 in0.0 mm 0.02 in0.5 mm
02:40 PM 42.6°F5.9°C 39.3°F4.1°C 88% 10.0 mph ENE16.1 kmh ENE 15.0 mph24.1 kmh 29.85 in1010.8 mb 0.00 in0.0 mm 0.00 in0.0 mm 0.02 in0.5 mm
02:45 PM 42.2°F5.7°C 38.9°F3.8°C 88% 9.0 mph ENE14.5 kmh ENE 15.0 mph24.1 kmh 29.85 in1010.8 mb 0.00 in0.0 mm 0.00 in0.0 mm 0.02 in0.5 mm
02:50 PM 42.1°F5.6°C 38.8°F3.8°C 88% 12.0 mph NE19.3 kmh NE 15.0 mph24.1 kmh 29.86 in1011.2 mb 0.00 in0.0 mm 0.00 in0.0 mm 0.02 in0.5 mm
02:55 PM 42.0°F5.6°C 38.7°F3.7°C 88% 4.0 mph ENE6.4 kmh ENE 15.0 mph24.1 kmh 29.86 in1011.2 mb 0.00 in0.0 mm 0.00 in0.0 mm 0.02 in0.5 mm
03:00 PM 41.8°F5.4°C 38.5°F3.6°C 88% 4.0 mph NE6.4 kmh NE 15.0 mph24.1 kmh 29.88 in1011.9 mb 0.00 in0.0 mm 0.00 in0.0 mm 0.03 in0.8 mm
03:05 PM 41.6°F5.3°C 38.3°F3.5°C 88% 5.0 mph NE8.0 kmh NE 15.0 mph24.1 kmh 29.88 in1011.9 mb 0.40 in10.2 mm 4.80 in121.9 mm 0.05 in1.3 mm
03:10 PM 41.5°F5.3°C 38.2°F3.4°C 88% 5.0 mph NE8.0 kmh NE 15.0 mph24.1 kmh 29.86 in1011.2 mb 0.51 in13.0 mm 1.32 in33.5 mm 0.07 in1.8 mm
03:15 PM 41.4°F5.2°C 38.1°F3.4°C 88% 9.0 mph ENE14.5 kmh ENE 11.0 mph17.7 kmh 29.86 in1011.2 mb 0.44 in11.2 mm 0.00 in0.0 mm 0.11 in2.8 mm
03:20 PM 41.1°F5.1°C 37.8°F3.2°C 88% 7.0 mph NNE11.3 kmh NNE 11.0 mph17.7 kmh 29.86 in1011.2 mb 0.49 in12.4 mm 0.60 in15.2 mm 0.14 in3.6 mm
03:25 PM 40.8°F4.9°C 37.5°F3.1°C 88% 7.0 mph NE11.3 kmh NE 15.0 mph24.1 kmh 29.86 in1011.2 mb 0.27 in6.9 mm 0.00 in0.0 mm 0.16 in4.1 mm
03:30 PM 40.5°F4.7°C 37.2°F2.9°C 88% 10.0 mph NE16.1 kmh NE 15.0 mph24.1 kmh 29.85 in1010.8 mb 0.29 in7.4 mm 0.24 in6.1 mm 0.18 in4.6 mm
03:35 PM 40.3°F4.6°C 37.0°F2.8°C 88% 11.0 mph NE17.7 kmh NE 17.0 mph27.4 kmh 29.86 in1011.2 mb 0.09 in2.3 mm 0.00 in0.0 mm 0.18 in4.6 mm
03:40 PM 40.1°F4.5°C 36.8°F2.7°C 88% 13.0 mph ENE20.9 kmh ENE 17.0 mph27.4 kmh 29.85 in1010.8 mb 0.09 in2.3 mm 0.00 in0.0 mm 0.19 in4.8 mm
03:45 PM 40.0°F4.4°C 36.7°F2.6°C 88% 13.0 mph ENE20.9 kmh ENE 20.0 mph32.2 kmh 29.85 in1010.8 mb 0.06 in1.5 mm 0.00 in0.0 mm 0.19 in4.8 mm
03:50 PM 40.0°F4.4°C 36.7°F2.6°C 88% 11.0 mph NE17.7 kmh NE 20.0 mph32.2 kmh 29.85 in1010.8 mb 0.06 in1.5 mm 0.00 in0.0 mm 0.20 in5.1 mm
03:55 PM 39.9°F4.4°C 36.6°F2.6°C 88% 14.0 mph NE22.5 kmh NE 20.0 mph32.2 kmh 29.85 in1010.8 mb 0.06 in1.5 mm 0.00 in0.0 mm 0.20 in5.1 mm
04:00 PM 39.8°F4.3°C 36.5°F2.5°C 88% 12.0 mph NE19.3 kmh NE 20.0 mph32.2 kmh 29.86 in1011.2 mb 0.04 in1.0 mm 0.00 in0.0 mm 0.20 in5.1 mm
04:05 PM 39.6°F4.2°C 36.4°F2.4°C 88% 14.0 mph ENE22.5 kmh ENE 19.0 mph30.6 kmh 29.86 in1011.2 mb 0.00 in0.0 mm 0.00 in0.0 mm 0.20 in5.1 mm
04:10 PM 39.5°F4.2°C 36.3°F2.4°C 88% 13.0 mph ENE20.9 kmh ENE 20.0 mph32.2 kmh 29.86 in1011.2 mb 0.00 in0.0 mm 0.00 in0.0 mm 0.20 in5.1 mm
04:15 PM 39.4°F4.1°C 36.2°F2.3°C 88% 10.0 mph NE16.1 kmh NE 20.0 mph32.2 kmh 29.85 in1010.8 mb 0.00 in0.0 mm 0.00 in0.0 mm 0.20 in5.1 mm
04:20 PM 39.4°F4.1°C 36.2°F2.3°C 88% 14.0 mph NE22.5 kmh NE 20.0 mph32.2 kmh 29.86 in1011.2 mb 0.00 in0.0 mm 0.00 in0.0 mm 0.20 in5.1 mm
04:25 PM 39.4°F4.1°C 36.2°F2.3°C 88% 12.0 mph NE19.3 kmh NE 20.0 mph32.2 kmh 29.85 in1010.8 mb 0.00 in0.0 mm 0.00 in0.0 mm 0.20 in5.1 mm
04:30 PM 39.4°F4.1°C 36.4°F2.4°C 89% 8.0 mph ENE12.9 kmh ENE 18.0 mph29.0 kmh 29.86 in1011.2 mb 0.00 in0.0 mm 0.00 in0.0 mm 0.20 in5.1 mm
04:35 PM 39.3°F4.1°C 36.4°F2.4°C 89% 4.0 mph NE6.4 kmh NE 18.0 mph29.0 kmh 29.87 in1011.5 mb 0.00 in0.0 mm 0.00 in0.0 mm 0.21 in5.3 mm
04:40 PM 39.2°F4.0°C 36.0°F2.2°C 88% 6.0 mph NNE9.7 kmh NNE 17.0 mph27.4 kmh 29.87 in1011.5 mb 0.00 in0.0 mm 0.00 in0.0 mm 0.21 in5.3 mm
04:45 PM 38.9°F3.8°C 35.7°F2.1°C 88% 23.0 mph NE37.0 kmh NE 23.0 mph37.0 kmh 29.87 in1011.5 mb 0.00 in0.0 mm 0.00 in0.0 mm 0.21 in5.3 mm
04:50 PM 38.5°F3.6°C 35.3°F1.8°C 88% 13.0 mph NE20.9 kmh NE 23.0 mph37.0 kmh 29.87 in1011.5 mb 0.00 in0.0 mm 0.00 in0.0 mm 0.21 in5.3 mm
04:55 PM 38.4°F3.6°C 35.2°F1.8°C 88% 15.0 mph ENE24.1 kmh ENE 23.0 mph37.0 kmh 29.88 in1011.9 mb 0.00 in0.0 mm 0.00 in0.0 mm 0.21 in5.3 mm
05:00 PM 38.2°F3.4°C 35.0°F1.7°C 88% 11.0 mph NE17.7 kmh NE 23.0 mph37.0 kmh 29.88 in1011.9 mb 0.00 in0.0 mm 0.00 in0.0 mm 0.21 in5.3 mm
05:05 PM 38.1°F3.4°C 34.9°F1.6°C 88% 17.0 mph NE27.4 kmh NE 23.0 mph37.0 kmh 29.88 in1011.9 mb 0.00 in0.0 mm 0.00 in0.0 mm 0.21 in5.3 mm
05:10 PM 38.0°F3.3°C 34.8°F1.6°C 88% 11.0 mph NE17.7 kmh NE 23.0 mph37.0 kmh 29.89 in1012.2 mb 0.00 in0.0 mm 0.00 in0.0 mm 0.21 in5.3 mm
05:15 PM 38.0°F3.3°C 34.8°F1.6°C 88% 11.0 mph E17.7 kmh E 23.0 mph37.0 kmh 29.89 in1012.2 mb 0.00 in0.0 mm 0.00 in0.0 mm 0.21 in5.3 mm
05:20 PM 37.8°F3.2°C 34.6°F1.4°C 88% 7.0 mph NE11.3 kmh NE 23.0 mph37.0 kmh 29.91 in1012.9 mb 0.00 in0.0 mm 0.00 in0.0 mm 0.21 in5.3 mm
05:25 PM 37.7°F3.2°C 34.5°F1.4°C 88% 17.0 mph N27.4 kmh N 19.0 mph30.6 kmh 29.90 in1012.5 mb 0.00 in0.0 mm 0.00 in0.0 mm 0.21 in5.3 mm
05:30 PM 37.5°F3.1°C 34.3°F1.3°C 88% 10.0 mph NE16.1 kmh NE 24.0 mph38.6 kmh 29.92 in1013.2 mb 0.00 in0.0 mm 0.00 in0.0 mm 0.21 in5.3 mm
05:35 PM 37.3°F2.9°C 34.1°F1.2°C 88% 8.0 mph NE12.9 kmh NE 24.0 mph38.6 kmh 29.94 in1013.9 mb 0.00 in0.0 mm 0.00 in0.0 mm 0.21 in5.3 mm
05:40 PM 37.1°F2.8°C 33.9°F1.1°C 88% 11.0 mph NE17.7 kmh NE 27.0 mph43.5 kmh 29.93 in1013.5 mb 0.00 in0.0 mm 0.00 in0.0 mm 0.21 in5.3 mm
05:45 PM 36.8°F2.7°C 33.6°F0.9°C 88% 7.0 mph N11.3 kmh N 27.0 mph43.5 kmh 29.94 in1013.9 mb 0.00 in0.0 mm 0.00 in0.0 mm 0.22 in5.6 mm
05:50 PM 36.6°F2.6°C 33.4°F0.8°C 88% 6.0 mph NE9.7 kmh NE 27.0 mph43.5 kmh 29.94 in1013.9 mb 0.00 in0.0 mm 0.00 in0.0 mm 0.22 in5.6 mm
05:55 PM 36.5°F2.5°C 33.3°F0.7°C 88% 9.0 mph NE14.5 kmh NE 27.0 mph43.5 kmh 29.94 in1013.9 mb 0.00 in0.0 mm 0.00 in0.0 mm 0.22 in5.6 mm
06:00 PM 36.3°F2.4°C 33.1°F0.6°C 88% 12.0 mph NE19.3 kmh NE 26.0 mph41.8 kmh 29.94 in1013.9 mb 0.00 in0.0 mm 0.00 in0.0 mm 0.22 in5.6 mm
06:05 PM 36.1°F2.3°C 32.9°F0.5°C 88% 3.0 mph NE4.8 kmh NE 34.0 mph54.7 kmh 29.95 in1014.2 mb 0.00 in0.0 mm 0.00 in0.0 mm 0.22 in5.6 mm
06:10 PM 36.0°F2.2°C 32.8°F0.4°C 88% 8.0 mph NE12.9 kmh NE 34.0 mph54.7 kmh 29.95 in1014.2 mb 0.00 in0.0 mm 0.00 in0.0 mm 0.22 in5.6 mm
06:15 PM 35.8°F2.1°C 32.6°F0.3°C 88% 14.0 mph ENE22.5 kmh ENE 34.0 mph54.7 kmh 29.95 in1014.2 mb 0.00 in0.0 mm 0.00 in0.0 mm 0.22 in5.6 mm
06:20 PM 35.6°F2.0°C 32.4°F0.2°C 88% 9.0 mph NE14.5 kmh NE 34.0 mph54.7 kmh 29.95 in1014.2 mb 0.00 in0.0 mm 0.00 in0.0 mm 0.22 in5.6 mm
06:25 PM 35.6°F2.0°C 32.4°F0.2°C 88% 12.0 mph ENE19.3 kmh ENE 28.0 mph45.1 kmh 29.95 in1014.2 mb 0.00 in0.0 mm 0.00 in0.0 mm 0.22 in5.6 mm
06:30 PM 35.6°F2.0°C 32.4°F0.2°C 88% 18.0 mph NE29.0 kmh NE 28.0 mph45.1 kmh 29.95 in1014.2 mb 0.00 in0.0 mm 0.00 in0.0 mm 0.22 in5.6 mm
06:35 PM 35.5°F1.9°C 32.3°F0.2°C 88% 16.0 mph NE25.7 kmh NE 28.0 mph45.1 kmh 29.95 in1014.2 mb 0.00 in0.0 mm 0.00 in0.0 mm 0.22 in5.6 mm
06:40 PM 35.3°F1.8°C 32.1°F0.1°C 88% 14.0 mph NE22.5 kmh NE 29.0 mph46.7 kmh 29.94 in1013.9 mb 0.00 in0.0 mm 0.00 in0.0 mm 0.22 in5.6 mm
06:45 PM 35.3°F1.8°C 32.1°F0.1°C 88% 15.0 mph E24.1 kmh E 29.0 mph46.7 kmh 29.95 in1014.2 mb 0.00 in0.0 mm 0.00 in0.0 mm 0.22 in5.6 mm
06:50 PM 35.3°F1.8°C 32.1°F0.1°C 88% 17.0 mph NE27.4 kmh NE 29.0 mph46.7 kmh 29.95 in1014.2 mb 0.00 in0.0 mm 0.00 in0.0 mm 0.22 in5.6 mm
06:55 PM 35.2°F1.8°C 32.0°F0.0°C 88% 17.0 mph ENE27.4 kmh ENE 29.0 mph46.7 kmh 29.94 in1013.9 mb 0.00 in0.0 mm 0.00 in0.0 mm 0.22 in5.6 mm
07:00 PM 35.1°F1.7°C 31.9°F-0.1°C 88% 11.0 mph NE17.7 kmh NE 29.0 mph46.7 kmh 29.95 in1014.2 mb 0.00 in0.0 mm 0.00 in0.0 mm 0.22 in5.6 mm
07:05 PM 35.0°F1.7°C 31.8°F-0.1°C 88% 16.0 mph NE25.7 kmh NE 29.0 mph46.7 kmh 29.95 in1014.2 mb 0.00 in0.0 mm 0.00 in0.0 mm 0.22 in5.6 mm
07:10 PM 34.9°F1.6°C 31.7°F-0.2°C 88% 15.0 mph ENE24.1 kmh ENE 29.0 mph46.7 kmh 29.95 in1014.2 mb 0.00 in0.0 mm 0.00 in0.0 mm 0.22 in5.6 mm
07:15 PM 34.9°F1.6°C 31.7°F-0.2°C 88% 21.0 mph NE33.8 kmh NE 29.0 mph46.7 kmh 29.95 in1014.2 mb 0.00 in0.0 mm 0.00 in0.0 mm 0.22 in5.6 mm
07:20 PM 34.8°F1.6°C 31.6°F-0.2°C 88% 19.0 mph NE30.6 kmh NE 28.0 mph45.1 kmh 29.95 in1014.2 mb 0.00 in0.0 mm 0.00 in0.0 mm 0.22 in5.6 mm
07:25 PM 34.8°F1.6°C 31.6°F-0.2°C 88% 10.0 mph NE16.1 kmh NE 28.0 mph45.1 kmh 29.94 in1013.9 mb 0.00 in0.0 mm 0.00 in0.0 mm 0.22 in5.6 mm
07:30 PM 34.7°F1.5°C 31.5°F-0.3°C 88% 15.0 mph NE24.1 kmh NE 28.0 mph45.1 kmh 29.93 in1013.5 mb 0.00 in0.0 mm 0.00 in0.0 mm 0.22 in5.6 mm
07:35 PM 34.7°F1.5°C 31.5°F-0.3°C 88% 25.0 mph NE40.2 kmh NE 29.0 mph46.7 kmh 29.92 in1013.2 mb 0.00 in0.0 mm 0.00 in0.0 mm 0.22 in5.6 mm
07:40 PM 34.7°F1.5°C 31.5°F-0.3°C 88% 25.0 mph ENE40.2 kmh ENE 29.0 mph46.7 kmh 29.91 in1012.9 mb 0.00 in0.0 mm 0.00 in0.0 mm 0.22 in5.6 mm
07:45 PM 34.8°F1.6°C 31.6°F-0.2°C 88% 12.0 mph NE19.3 kmh NE 31.0 mph49.9 kmh 29.91 in1012.9 mb 0.00 in0.0 mm 0.00 in0.0 mm 0.22 in5.6 mm
07:50 PM 34.8°F1.6°C 31.6°F-0.2°C 88% 9.0 mph NE14.5 kmh NE 31.0 mph49.9 kmh 29.91 in1012.9 mb 0.00 in0.0 mm 0.00 in0.0 mm 0.22 in5.6 mm
07:55 PM 34.7°F1.5°C 31.5°F-0.3°C 88% 13.0 mph NE20.9 kmh NE 32.0 mph51.5 kmh 29.91 in1012.9 mb 0.00 in0.0 mm 0.00 in0.0 mm 0.22 in5.6 mm
08:00 PM 34.7°F1.5°C 31.5°F-0.3°C 88% 17.0 mph ENE27.4 kmh ENE 34.0 mph54.7 kmh 29.91 in1012.9 mb 0.00 in0.0 mm 0.00 in0.0 mm 0.22 in5.6 mm
08:05 PM 34.8°F1.6°C 31.6°F-0.2°C 88% 18.0 mph NE29.0 kmh NE 34.0 mph54.7 kmh 29.91 in1012.9 mb 0.00 in0.0 mm 0.00 in0.0 mm 0.22 in5.6 mm
08:10 PM 34.8°F1.6°C 31.6°F-0.2°C 88% 17.0 mph ENE27.4 kmh ENE 34.0 mph54.7 kmh 29.93 in1013.5 mb 0.00 in0.0 mm 0.00 in0.0 mm 0.22 in5.6 mm
08:15 PM 34.9°F1.6°C 31.7°F-0.2°C 88% 8.0 mph NE12.9 kmh NE 34.0 mph54.7 kmh 29.94 in1013.9 mb 0.00 in0.0 mm 0.00 in0.0 mm 0.22 in5.6 mm
08:20 PM 34.9°F1.6°C 31.7°F-0.2°C 88% 7.0 mph NNE11.3 kmh NNE 27.0 mph43.5 kmh 29.94 in1013.9 mb 0.00 in0.0 mm 0.00 in0.0 mm 0.22 in5.6 mm
08:25 PM 34.9°F1.6°C 31.7°F-0.2°C 88% 15.0 mph ENE24.1 kmh ENE 27.0 mph43.5 kmh 29.97 in1014.9 mb 0.00 in0.0 mm 0.00 in0.0 mm 0.22 in5.6 mm
08:30 PM 35.0°F1.7°C 31.8°F-0.1°C 88% 11.0 mph NE17.7 kmh NE 27.0 mph43.5 kmh 29.97 in1014.9 mb 0.00 in0.0 mm 0.00 in0.0 mm 0.22 in5.6 mm
08:35 PM 35.0°F1.7°C 31.8°F-0.1°C 88% 11.0 mph NE17.7 kmh NE 27.0 mph43.5 kmh 29.97 in1014.9 mb 0.00 in0.0 mm 0.00 in0.0 mm 0.22 in5.6 mm
08:40 PM 35.0°F1.7°C 31.8°F-0.1°C 88% 15.0 mph ENE24.1 kmh ENE 25.0 mph40.2 kmh 29.99 in1015.6 mb 0.00 in0.0 mm 0.00 in0.0 mm 0.22 in5.6 mm
08:45 PM 35.1°F1.7°C 31.9°F-0.1°C 88% 12.0 mph NE19.3 kmh NE 25.0 mph40.2 kmh 29.99 in1015.6 mb 0.00 in0.0 mm 0.00 in0.0 mm 0.22 in5.6 mm
08:50 PM 35.1°F1.7°C 31.9°F-0.1°C 88% 18.0 mph NNE29.0 kmh NNE 21.0 mph33.8 kmh 30.00 in1015.9 mb 0.00 in0.0 mm 0.00 in0.0 mm 0.22 in5.6 mm
08:55 PM 35.1°F1.7°C 31.9°F-0.1°C 88% 5.0 mph N8.0 kmh N 21.0 mph33.8 kmh 30.00 in1015.9 mb 0.00 in0.0 mm 0.00 in0.0 mm 0.22 in5.6 mm
09:00 PM 35.1°F1.7°C 31.9°F-0.1°C 88% 4.0 mph NE6.4 kmh NE 21.0 mph33.8 kmh 30.01 in1016.3 mb 0.00 in0.0 mm 0.00 in0.0 mm 0.22 in5.6 mm
09:05 PM 35.1°F1.7°C 31.9°F-0.1°C 88% 15.0 mph ENE24.1 kmh ENE 26.0 mph41.8 kmh 30.01 in1016.3 mb 0.00 in0.0 mm 0.00 in0.0 mm 0.22 in5.6 mm
09:10 PM 35.1°F1.7°C 31.9°F-0.1°C 88% 15.0 mph ENE24.1 kmh ENE 28.0 mph45.1 kmh 30.00 in1015.9 mb 0.00 in0.0 mm 0.00 in0.0 mm 0.22 in5.6 mm
09:15 PM 35.1°F1.7°C 31.9°F-0.1°C 88% 15.0 mph ENE24.1 kmh ENE 28.0 mph45.1 kmh 29.99 in1015.6 mb 0.00 in0.0 mm 0.00 in0.0 mm 0.22 in5.6 mm
09:20 PM 35.1°F1.7°C 31.9°F-0.1°C 88% 16.0 mph ENE25.7 kmh ENE 28.0 mph45.1 kmh 30.00 in1015.9 mb 0.00 in0.0 mm 0.00 in0.0 mm 0.22 in5.6 mm
09:25 PM 35.1°F1.7°C 31.9°F-0.1°C 88% 17.0 mph ENE27.4 kmh ENE 28.0 mph45.1 kmh 30.00 in1015.9 mb 0.00 in0.0 mm 0.00 in0.0 mm 0.22 in5.6 mm
09:30 PM 35.1°F1.7°C 31.9°F-0.1°C 88% 14.0 mph NE22.5 kmh NE 27.0 mph43.5 kmh 30.00 in1015.9 mb 0.00 in0.0 mm 0.00 in0.0 mm 0.22 in5.6 mm
09:35 PM 35.1°F1.7°C 31.9°F-0.1°C 88% 13.0 mph NE20.9 kmh NE 27.0 mph43.5 kmh 30.00 in1015.9 mb 0.00 in0.0 mm 0.00 in0.0 mm 0.22 in5.6 mm
09:40 PM 35.1°F1.7°C 31.9°F-0.1°C 88% 13.0 mph E20.9 kmh E 27.0 mph43.5 kmh 30.01 in1016.3 mb 0.00 in0.0 mm 0.00 in0.0 mm 0.22 in5.6 mm
09:45 PM 35.1°F1.7°C 31.9°F-0.1°C 88% 12.0 mph NE19.3 kmh NE 27.0 mph43.5 kmh 30.01 in1016.3 mb 0.00 in0.0 mm 0.00 in0.0 mm 0.22 in5.6 mm
09:50 PM 35.2°F1.8°C 32.0°F0.0°C 88% 11.0 mph NE17.7 kmh NE 24.0 mph38.6 kmh 30.02 in1016.6 mb 0.00 in0.0 mm 0.00 in0.0 mm 0.22 in5.6 mm
09:55 PM 35.2°F1.8°C 32.0°F0.0°C 88% 11.0 mph NE17.7 kmh NE 28.0 mph45.1 kmh 30.02 in1016.6 mb 0.00 in0.0 mm 0.00 in0.0 mm 0.22 in5.6 mm
10:00 PM 35.2°F1.8°C 32.0°F0.0°C 88% 14.0 mph NE22.5 kmh NE 28.0 mph45.1 kmh 30.02 in1016.6 mb 0.00 in0.0 mm 0.00 in0.0 mm 0.22 in5.6 mm
10:05 PM 35.1°F1.7°C 31.9°F-0.1°C 88% 8.0 mph NE12.9 kmh NE 28.0 mph45.1 kmh 30.01 in1016.3 mb 0.00 in0.0 mm 0.00 in0.0 mm 0.22 in5.6 mm
10:10 PM 35.1°F1.7°C 31.9°F-0.1°C 88% 20.0 mph ENE32.2 kmh ENE 28.0 mph45.1 kmh 30.02 in1016.6 mb 0.00 in0.0 mm 0.00 in0.0 mm 0.22 in5.6 mm
10:15 PM 35.1°F1.7°C 31.9°F-0.1°C 88% 18.0 mph NE29.0 kmh NE 25.0 mph40.2 kmh 30.01 in1016.3 mb 0.00 in0.0 mm 0.00 in0.0 mm 0.22 in5.6 mm
10:20 PM 35.0°F1.7°C 31.8°F-0.1°C 88% 21.0 mph ENE33.8 kmh ENE 25.0 mph40.2 kmh 30.01 in1016.3 mb 0.00 in0.0 mm 0.00 in0.0 mm 0.22 in5.6 mm
10:25 PM 34.9°F1.6°C 31.7°F-0.2°C 88% 12.0 mph ENE19.3 kmh ENE 23.0 mph37.0 kmh 30.01 in1016.3 mb 0.00 in0.0 mm 0.00 in0.0 mm 0.22 in5.6 mm
10:30 PM 34.9°F1.6°C 31.7°F-0.2°C 88% 13.0 mph ENE20.9 kmh ENE 25.0 mph40.2 kmh 30.01 in1016.3 mb 0.00 in0.0 mm 0.00 in0.0 mm 0.22 in5.6 mm
10:35 PM 34.8°F1.6°C 31.6°F-0.2°C 88% 23.0 mph NE37.0 kmh NE 25.0 mph40.2 kmh 30.00 in1015.9 mb 0.00 in0.0 mm 0.00 in0.0 mm 0.22 in5.6 mm
10:40 PM 34.8°F1.6°C 31.6°F-0.2°C 88% 19.0 mph NE30.6 kmh NE 25.0 mph40.2 kmh 30.00 in1015.9 mb 0.00 in0.0 mm 0.00 in0.0 mm 0.22 in5.6 mm
10:45 PM 34.8°F1.6°C 31.6°F-0.2°C 88% 11.0 mph NE17.7 kmh NE 25.0 mph40.2 kmh 30.00 in1015.9 mb 0.00 in0.0 mm 0.00 in0.0 mm 0.22 in5.6 mm
10:50 PM 34.7°F1.5°C 31.5°F-0.3°C 88% 16.0 mph NE25.7 kmh NE 25.0 mph40.2 kmh 30.00 in1015.9 mb 0.00 in0.0 mm 0.00 in0.0 mm 0.22 in5.6 mm
10:55 PM 34.6°F1.4°C 31.4°F-0.3°C 88% 12.0 mph NE19.3 kmh NE 28.0 mph45.1 kmh 30.00 in1015.9 mb 0.00 in0.0 mm 0.00 in0.0 mm 0.22 in5.6 mm
11:00 PM 34.7°F1.5°C 31.5°F-0.3°C 88% 13.0 mph NE20.9 kmh NE 28.0 mph45.1 kmh 30.00 in1015.9 mb 0.00 in0.0 mm 0.00 in0.0 mm 0.22 in5.6 mm
11:05 PM 34.7°F1.5°C 31.5°F-0.3°C 88% 12.0 mph NE19.3 kmh NE 28.0 mph45.1 kmh 30.00 in1015.9 mb 0.00 in0.0 mm 0.00 in0.0 mm 0.22 in5.6 mm
11:10 PM 34.7°F1.5°C 31.5°F-0.3°C 88% 17.0 mph NE27.4 kmh NE 28.0 mph45.1 kmh 30.00 in1015.9 mb 0.00 in0.0 mm 0.00 in0.0 mm 0.22 in5.6 mm
11:15 PM 34.7°F1.5°C 31.5°F-0.3°C 88% 14.0 mph ENE22.5 kmh ENE 25.0 mph40.2 kmh 30.00 in1015.9 mb 0.00 in0.0 mm 0.00 in0.0 mm 0.22 in5.6 mm
11:20 PM 34.6°F1.4°C 31.4°F-0.3°C 88% 25.0 mph NE40.2 kmh NE 25.0 mph40.2 kmh 30.00 in1015.9 mb 0.00 in0.0 mm 0.00 in0.0 mm 0.22 in5.6 mm
11:25 PM 34.6°F1.4°C 31.4°F-0.3°C 88% 12.0 mph NE19.3 kmh NE 31.0 mph49.9 kmh 30.00 in1015.9 mb 0.00 in0.0 mm 0.00 in0.0 mm 0.22 in5.6 mm
11:30 PM 34.6°F1.4°C 31.4°F-0.3°C 88% 20.0 mph NE32.2 kmh NE 31.0 mph49.9 kmh 30.00 in1015.9 mb 0.00 in0.0 mm 0.00 in0.0 mm 0.22 in5.6 mm
11:35 PM 34.4°F1.3°C 31.2°F-0.4°C 88% 13.0 mph NE20.9 kmh NE 31.0 mph49.9 kmh 30.00 in1015.9 mb 0.00 in0.0 mm 0.00 in0.0 mm 0.22 in5.6 mm
11:40 PM 34.4°F1.3°C 31.2°F-0.4°C 88% 13.0 mph NE20.9 kmh NE 31.0 mph49.9 kmh 30.00 in1015.9 mb 0.00 in0.0 mm 0.00 in0.0 mm 0.22 in5.6 mm
11:45 PM 34.3°F1.3°C 31.1°F-0.5°C 88% 20.0 mph NE32.2 kmh NE 25.0 mph40.2 kmh 30.00 in1015.9 mb 0.00 in0.0 mm 0.00 in0.0 mm 0.22 in5.6 mm
11:50 PM 34.4°F1.3°C 31.2°F-0.4°C 88% 15.0 mph ENE24.1 kmh ENE 25.0 mph40.2 kmh 30.00 in1015.9 mb 0.00 in0.0 mm 0.00 in0.0 mm 0.22 in5.6 mm
11:55 PM 34.4°F1.3°C 31.2°F-0.4°C 88% 10.0 mph NE16.1 kmh NE 26.0 mph41.8 kmh 30.00 in1015.9 mb 0.00 in0.0 mm 0.00 in0.0 mm 0.22 in5.6 mm